createdAt,value
2024-02-18T11:00:02.432Z,101598.76
2024-02-18T11:05:08.462Z,101595.58
2024-02-18T11:10:12.640Z,101591.89
2024-02-18T11:15:16.194Z,101587.46
2024-02-18T11:24:59.441Z,101588.38
2024-02-18T11:30:02.735Z,101585.91
2024-02-18T11:35:13.349Z,101587.25
2024-02-18T11:40:20.626Z,101583.99
2024-02-18T11:45:25.883Z,101585.86
2024-02-18T11:50:28.909Z,101590.83
2024-02-18T11:55:31.561Z,101582.02
2024-02-18T12:00:34.314Z,101574.11
2024-02-18T12:05:41.132Z,101570.04
2024-02-18T12:10:43.847Z,101562.67
2024-02-18T12:15:47.376Z,101566.86
2024-02-18T12:20:51.295Z,101566.87
2024-02-18T12:25:58.440Z,101558.83
2024-02-18T12:31:02.224Z,101556.80
2024-02-18T12:36:06.694Z,101551.47
2024-02-18T12:41:09.393Z,101542.96
2024-02-18T12:46:13.005Z,101549.84
2024-02-18T12:51:16.981Z,101540.29
2024-02-18T12:56:20.523Z,101542.39
2024-02-18T13:01:23.994Z,101537.42
2024-02-18T13:06:27.171Z,101538.52
2024-02-18T13:11:37.008Z,101534.70
2024-02-18T13:16:39.837Z,101544.56
2024-02-18T13:21:49.960Z,101541.88
2024-02-18T13:27:01.164Z,101541.88
2024-02-18T13:32:04.226Z,101545.38
2024-02-18T13:37:07.952Z,101537.55
2024-02-18T13:42:10.849Z,101534.01
2024-02-18T13:47:16.378Z,101537.92
2024-02-18T13:52:19.223Z,101542.15
2024-02-18T13:57:21.839Z,101543.41
2024-02-18T14:02:24.756Z,101544.66
2024-02-18T14:07:31.626Z,101542.40
2024-02-18T14:12:34.376Z,101543.14
2024-02-18T14:17:40.957Z,101541.02
2024-02-18T14:22:43.775Z,101539.98
2024-02-18T14:27:46.741Z,101539.95
2024-02-18T14:32:49.448Z,101544.01
2024-02-18T14:37:53.377Z,101544.89
2024-02-18T14:43:03.613Z,101542.95
2024-02-18T14:48:11.566Z,101537.42
2024-02-18T14:53:16.200Z,101539.23
2024-02-18T14:58:19.512Z,101535.88
2024-02-18T15:03:23.138Z,101529.71
2024-02-18T15:08:27.308Z,101527.52
2024-02-18T15:13:30.205Z,101521.04
2024-02-18T15:18:34.704Z,101517.67
2024-02-18T15:23:39.475Z,101522.58
2024-02-18T15:28:52.514Z,101520.37
2024-02-18T15:34:28.477Z,101520.46
2024-02-18T15:39:35.408Z,101521.52
2024-02-18T15:44:44.565Z,101522.98
2024-02-18T15:50:07.238Z,101523.38
2024-02-18T15:55:45.319Z,101514.02
2024-02-18T16:01:44.699Z,101508.71
2024-02-18T16:07:25.292Z,101498.83
2024-02-18T16:12:38.907Z,101500.71
2024-02-18T16:17:57.383Z,101508.87
2024-02-18T16:24:00.426Z,101506.95
2024-02-18T16:28:28.876Z,101507.25
2024-02-18T16:33:35.028Z,101508.11
2024-02-18T16:38:56.808Z,101508.05
2024-02-18T16:44:46.341Z,101518.20
2024-02-18T16:50:25.447Z,101517.97
2024-02-18T16:56:16.493Z,101509.02
2024-02-18T17:01:22.086Z,101505.70
2024-02-18T17:06:35.206Z,101504.44
2024-02-18T17:11:50.580Z,101501.15
2024-02-18T17:17:30.049Z,101508.23
2024-02-18T17:22:44.970Z,101508.05
2024-02-18T17:27:58.786Z,101507.20
2024-02-18T17:33:07.247Z,101499.88
2024-02-18T17:38:10.543Z,101491.96
2024-02-18T17:43:14.161Z,101484.61
2024-02-18T17:48:26.841Z,101482.05
2024-02-18T17:53:32.484Z,101480.46
2024-02-18T17:58:35.505Z,101480.48
2024-02-18T18:03:38.361Z,101481.02
2024-02-18T18:08:41.622Z,101473.61
2024-02-18T18:13:44.279Z,101472.80
2024-02-18T18:18:50.683Z,101459.27
2024-02-18T18:23:57.267Z,101456.62
2024-02-18T18:29:01.899Z,101448.42
2024-02-18T18:34:04.742Z,101435.10
2024-02-18T18:39:09.926Z,101429.69
2024-02-18T18:44:13.047Z,101429.92
2024-02-18T18:49:16.112Z,101422.39
2024-02-18T18:54:19.060Z,101421.27
2024-02-18T18:59:30.171Z,101421.80
2024-02-18T19:04:33.647Z,101424.40
2024-02-18T19:09:36.420Z,101424.71
2024-02-18T19:14:39.664Z,101421.74
2024-02-18T19:19:44.791Z,101411.27
2024-02-18T19:24:51.795Z,101407.91
2024-02-18T19:29:56.933Z,101413.15
2024-02-18T19:34:59.827Z,101420.42
2024-02-18T19:40:03.120Z,101419.52
2024-02-18T19:45:06.748Z,101414.31
2024-02-18T19:50:10.857Z,101413.98
2024-02-18T19:55:14.529Z,101413.33
2024-02-18T20:00:18.363Z,101399.60
2024-02-18T20:05:21.232Z,101394.13
2024-02-18T20:10:25.321Z,101393.69
2024-02-18T20:15:28.222Z,101387.77
2024-02-18T20:20:30.940Z,101387.33
2024-02-18T20:25:33.665Z,101386.52
2024-02-18T20:30:36.542Z,101391.16
2024-02-18T20:35:41.771Z,101388.95
2024-02-18T20:40:48.448Z,101388.13
2024-02-18T20:45:51.449Z,101388.98
2024-02-18T20:50:55.665Z,101386.69
2024-02-18T20:56:01.288Z,101376.86
2024-02-18T21:01:04.980Z,101372.71
2024-02-18T21:06:09.064Z,101375.96
2024-02-18T21:11:12.297Z,101374.95
2024-02-18T21:16:15.467Z,101376.04
2024-02-18T21:21:19.239Z,101368.00
2024-02-18T21:26:22.540Z,101369.38
2024-02-18T21:31:25.967Z,101362.83
2024-02-18T21:36:31.684Z,101367.08
2024-02-18T21:41:38.210Z,101366.30
2024-02-18T21:46:46.280Z,101368.45
2024-02-18T21:51:50.185Z,101367.47
2024-02-18T21:56:53.782Z,101362.72
2024-02-18T22:01:57.365Z,101357.27
2024-02-18T22:07:12.765Z,101355.64
2024-02-18T22:12:20.094Z,101350.69
2024-02-18T22:17:23.121Z,101336.10
2024-02-18T22:22:25.895Z,101335.60
2024-02-18T22:27:29.446Z,101327.71
2024-02-18T22:32:32.119Z,101326.46
2024-02-18T22:37:35.608Z,101315.96
2024-02-18T22:42:38.705Z,101308.11
2024-02-18T22:47:41.440Z,101303.09
2024-02-18T22:52:47.243Z,101303.19
2024-02-18T22:57:50.168Z,101298.23
2024-02-18T23:02:53.736Z,101279.08
2024-02-18T23:07:56.629Z,101277.90
2024-02-18T23:12:59.535Z,101268.46
2024-02-18T23:18:02.608Z,101272.60
2024-02-18T23:23:06.457Z,101269.61
2024-02-18T23:28:09.761Z,101254.45
2024-02-18T23:33:13.369Z,101249.17
2024-02-18T23:38:17.333Z,101248.48
2024-02-18T23:43:23.310Z,101244.20
2024-02-18T23:48:26.389Z,101239.67
2024-02-18T23:53:30.016Z,101232.14
2024-02-18T23:58:33.003Z,101230.39
